sensor_id;sensor_type;location;lat;lon;timestamp;P1;durP1;ratioP1;P2;durP2;ratioP2
3979;SDS011;2004;52.452;13.120;2023-03-19T00:03:26;14.10;;;8.20;;
3979;SDS011;2004;52.452;13.120;2023-03-19T00:11:16;15.07;;;9.40;;
3979;SDS011;2004;52.452;13.120;2023-03-19T00:19:07;12.13;;;8.40;;
3979;SDS011;2004;52.452;13.120;2023-03-19T00:26:59;12.97;;;8.13;;
3979;SDS011;2004;52.452;13.120;2023-03-19T00:34:50;12.93;;;8.17;;
3979;SDS011;2004;52.452;13.120;2023-03-19T00:42:40;14.13;;;8.70;;
3979;SDS011;2004;52.452;13.120;2023-03-19T00:50:33;15.80;;;9.03;;
3979;SDS011;2004;52.452;13.120;2023-03-19T00:58:24;10.37;;;8.20;;
3979;SDS011;2004;52.452;13.120;2023-03-19T01:06:15;16.90;;;9.30;;
3979;SDS011;2004;52.452;13.120;2023-03-19T01:14:06;15.00;;;9.43;;
3979;SDS011;2004;52.452;13.120;2023-03-19T01:21:56;12.93;;;9.73;;
3979;SDS011;2004;52.452;13.120;2023-03-19T01:29:48;19.27;;;9.47;;
3979;SDS011;2004;52.452;13.120;2023-03-19T01:37:39;13.70;;;9.30;;
3979;SDS011;2004;52.452;13.120;2023-03-19T01:45:36;17.70;;;9.80;;
3979;SDS011;2004;52.452;13.120;2023-03-19T01:53:29;15.80;;;9.53;;
3979;SDS011;2004;52.452;13.120;2023-03-19T02:01:22;14.37;;;9.57;;
3979;SDS011;2004;52.452;13.120;2023-03-19T02:09:13;17.87;;;10.53;;
3979;SDS011;2004;52.452;13.120;2023-03-19T02:17:04;16.23;;;10.60;;
3979;SDS011;2004;52.452;13.120;2023-03-19T02:25:05;14.20;;;10.77;;
3979;SDS011;2004;52.452;13.120;2023-03-19T02:33:08;20.37;;;11.50;;
3979;SDS011;2004;52.452;13.120;2023-03-19T02:41:04;16.87;;;11.00;;
3979;SDS011;2004;52.452;13.120;2023-03-19T02:48:56;17.40;;;11.70;;
3979;SDS011;2004;52.452;13.120;2023-03-19T02:56:46;21.93;;;11.97;;
3979;SDS011;2004;52.452;13.120;2023-03-19T03:04:38;19.70;;;13.50;;
3979;SDS011;2004;52.452;13.120;2023-03-19T03:12:28;20.80;;;13.03;;
3979;SDS011;2004;52.452;13.120;2023-03-19T03:20:19;17.37;;;12.53;;
3979;SDS011;2004;52.452;13.120;2023-03-19T03:28:09;21.93;;;13.40;;
3979;SDS011;2004;52.452;13.120;2023-03-19T03:36:01;22.10;;;12.17;;
3979;SDS011;2004;52.452;13.120;2023-03-19T03:43:51;22.20;;;13.30;;
3979;SDS011;2004;52.452;13.120;2023-03-19T03:51:42;25.27;;;12.43;;
3979;SDS011;2004;52.452;13.120;2023-03-19T03:59:33;18.43;;;12.80;;
3979;SDS011;2004;52.452;13.120;2023-03-19T04:07:23;17.77;;;12.60;;
3979;SDS011;2004;52.452;13.120;2023-03-19T04:15:14;19.93;;;12.87;;
3979;SDS011;2004;52.452;13.120;2023-03-19T04:23:05;26.20;;;10.20;;
3979;SDS011;2004;52.452;13.120;2023-03-19T04:31:04;23.13;;;13.60;;
3979;SDS011;2004;52.452;13.120;2023-03-19T04:38:56;26.00;;;13.27;;
3979;SDS011;2004;52.452;13.120;2023-03-19T04:46:47;18.40;;;13.10;;
3979;SDS011;2004;52.452;13.120;2023-03-19T04:54:37;30.50;;;15.30;;
3979;SDS011;2004;52.452;13.120;2023-03-19T05:02:27;27.37;;;14.30;;
3979;SDS011;2004;52.452;13.120;2023-03-19T05:10:18;25.33;;;14.10;;
3979;SDS011;2004;52.452;13.120;2023-03-19T05:18:10;22.43;;;14.87;;
3979;SDS011;2004;52.452;13.120;2023-03-19T05:26:01;26.20;;;17.37;;
3979;SDS011;2004;52.452;13.120;2023-03-19T05:33:52;29.10;;;17.70;;
3979;SDS011;2004;52.452;13.120;2023-03-19T05:41:42;23.67;;;15.73;;
3979;SDS011;2004;52.452;13.120;2023-03-19T05:49:32;25.53;;;13.70;;
3979;SDS011;2004;52.452;13.120;2023-03-19T05:57:23;24.97;;;17.40;;
3979;SDS011;2004;52.452;13.120;2023-03-19T06:05:14;23.40;;;15.70;;
3979;SDS011;2004;52.452;13.120;2023-03-19T06:13:05;29.50;;;17.10;;
3979;SDS011;2004;52.452;13.120;2023-03-19T06:20:56;27.63;;;17.63;;
3979;SDS011;2004;52.452;13.120;2023-03-19T06:28:47;28.27;;;17.20;;
3979;SDS011;2004;52.452;13.120;2023-03-19T06:36:39;26.33;;;16.07;;
3979;SDS011;2004;52.452;13.120;2023-03-19T06:44:29;33.27;;;17.23;;
3979;SDS011;2004;52.452;13.120;2023-03-19T06:52:20;31.13;;;16.67;;
3979;SDS011;2004;52.452;13.120;2023-03-19T07:00:11;25.47;;;16.70;;
3979;SDS011;2004;52.452;13.120;2023-03-19T07:08:02;29.83;;;18.77;;
3979;SDS011;2004;52.452;13.120;2023-03-19T07:15:53;33.87;;;19.40;;
3979;SDS011;2004;52.452;13.120;2023-03-19T07:23:43;36.00;;;19.10;;
3979;SDS011;2004;52.452;13.120;2023-03-19T07:31:35;23.87;;;16.60;;
3979;SDS011;2004;52.452;13.120;2023-03-19T07:39:26;29.27;;;16.07;;
3979;SDS011;2004;52.452;13.120;2023-03-19T07:47:16;32.97;;;17.90;;
3979;SDS011;2004;52.452;13.120;2023-03-19T07:55:07;26.30;;;16.40;;
3979;SDS011;2004;52.452;13.120;2023-03-19T08:02:58;24.67;;;17.40;;
3979;SDS011;2004;52.452;13.120;2023-03-19T08:10:48;29.90;;;19.93;;
3979;SDS011;2004;52.452;13.120;2023-03-19T08:18:39;26.93;;;18.40;;
3979;SDS011;2004;52.452;13.120;2023-03-19T08:26:31;22.37;;;15.07;;
3979;SDS011;2004;52.452;13.120;2023-03-19T08:34:23;28.83;;;18.70;;
3979;SDS011;2004;52.452;13.120;2023-03-19T08:42:14;26.70;;;16.77;;
3979;SDS011;2004;52.452;13.120;2023-03-19T08:50:05;31.30;;;17.90;;
3979;SDS011;2004;52.452;13.120;2023-03-19T08:57:56;28.90;;;18.63;;
3979;SDS011;2004;52.452;13.120;2023-03-19T09:05:47;24.77;;;17.80;;
3979;SDS011;2004;52.452;13.120;2023-03-19T09:13:37;29.13;;;17.20;;
3979;SDS011;2004;52.452;13.120;2023-03-19T09:21:28;24.37;;;16.93;;
3979;SDS011;2004;52.452;13.120;2023-03-19T09:29:20;28.07;;;17.90;;
3979;SDS011;2004;52.452;13.120;2023-03-19T09:37:11;28.60;;;16.80;;
3979;SDS011;2004;52.452;13.120;2023-03-19T09:45:02;26.30;;;17.80;;
3979;SDS011;2004;52.452;13.120;2023-03-19T09:53:11;28.80;;;18.67;;
3979;SDS011;2004;52.452;13.120;2023-03-19T10:01:25;28.17;;;19.27;;
3979;SDS011;2004;52.452;13.120;2023-03-19T10:09:41;22.20;;;16.80;;
3979;SDS011;2004;52.452;13.120;2023-03-19T10:25:48;22.80;;;16.07;;
3979;SDS011;2004;52.452;13.120;2023-03-19T10:33:43;26.37;;;15.43;;
3979;SDS011;2004;52.452;13.120;2023-03-19T10:41:57;22.57;;;15.63;;
3979;SDS011;2004;52.452;13.120;2023-03-19T10:49:49;20.83;;;14.13;;
3979;SDS011;2004;52.452;13.120;2023-03-19T10:57:41;21.40;;;13.97;;
3979;SDS011;2004;52.452;13.120;2023-03-19T11:05:33;17.60;;;12.00;;
3979;SDS011;2004;52.452;13.120;2023-03-19T11:13:24;15.80;;;12.40;;
3979;SDS011;2004;52.452;13.120;2023-03-19T11:21:20;15.73;;;10.50;;
3979;SDS011;2004;52.452;13.120;2023-03-19T11:29:15;12.87;;;9.93;;
3979;SDS011;2004;52.452;13.120;2023-03-19T11:37:07;17.90;;;9.60;;
3979;SDS011;2004;52.452;13.120;2023-03-19T12:09:55;14.50;;;9.47;;
3979;SDS011;2004;52.452;13.120;2023-03-19T12:26:06;12.63;;;8.33;;
3979;SDS011;2004;52.452;13.120;2023-03-19T12:42:01;13.47;;;9.70;;
3979;SDS011;2004;52.452;13.120;2023-03-19T13:14:21;20.63;;;8.77;;
3979;SDS011;2004;52.452;13.120;2023-03-19T13:22:28;8.80;;;7.20;;
3979;SDS011;2004;52.452;13.120;2023-03-19T13:30:23;8.17;;;7.30;;
3979;SDS011;2004;52.452;13.120;2023-03-19T13:38:19;11.30;;;8.03;;
3979;SDS011;2004;52.452;13.120;2023-03-19T14:10:23;7.27;;;6.50;;
3979;SDS011;2004;52.452;13.120;2023-03-19T14:18:17;7.77;;;6.10;;
3979;SDS011;2004;52.452;13.120;2023-03-19T14:26:15;14.90;;;7.87;;
3979;SDS011;2004;52.452;13.120;2023-03-19T14:58:04;13.43;;;6.87;;
3979;SDS011;2004;52.452;13.120;2023-03-19T15:05:55;8.07;;;5.70;;
3979;SDS011;2004;52.452;13.120;2023-03-19T15:22:20;7.60;;;5.50;;
3979;SDS011;2004;52.452;13.120;2023-03-19T15:30:21;11.87;;;6.63;;
3979;SDS011;2004;52.452;13.120;2023-03-19T15:38:16;9.47;;;5.63;;
3979;SDS011;2004;52.452;13.120;2023-03-19T15:46:14;13.07;;;6.23;;
3979;SDS011;2004;52.452;13.120;2023-03-19T15:54:07;10.77;;;5.63;;
3979;SDS011;2004;52.452;13.120;2023-03-19T16:01:58;8.17;;;5.37;;
3979;SDS011;2004;52.452;13.120;2023-03-19T16:09:50;8.03;;;5.83;;
3979;SDS011;2004;52.452;13.120;2023-03-19T16:17:41;9.17;;;6.40;;
3979;SDS011;2004;52.452;13.120;2023-03-19T16:25:33;7.23;;;4.83;;
3979;SDS011;2004;52.452;13.120;2023-03-19T16:33:25;8.37;;;4.20;;
3979;SDS011;2004;52.452;13.120;2023-03-19T16:41:17;8.30;;;5.80;;
3979;SDS011;2004;52.452;13.120;2023-03-19T16:49:12;8.83;;;5.60;;
3979;SDS011;2004;52.452;13.120;2023-03-19T16:57:02;8.77;;;6.10;;
3979;SDS011;2004;52.452;13.120;2023-03-19T17:04:53;11.90;;;7.50;;
3979;SDS011;2004;52.452;13.120;2023-03-19T17:12:44;7.53;;;5.80;;
3979;SDS011;2004;52.452;13.120;2023-03-19T17:20:42;17.13;;;6.80;;
3979;SDS011;2004;52.452;13.120;2023-03-19T17:28:41;14.00;;;7.30;;
3979;SDS011;2004;52.452;13.120;2023-03-19T17:36:31;12.20;;;7.47;;
3979;SDS011;2004;52.452;13.120;2023-03-19T17:44:22;12.70;;;8.40;;
3979;SDS011;2004;52.452;13.120;2023-03-19T17:52:15;9.00;;;6.63;;
3979;SDS011;2004;52.452;13.120;2023-03-19T18:00:08;11.00;;;7.40;;
3979;SDS011;2004;52.452;13.120;2023-03-19T18:07:59;15.73;;;9.03;;
3979;SDS011;2004;52.452;13.120;2023-03-19T18:15:50;16.77;;;9.50;;
3979;SDS011;2004;52.452;13.120;2023-03-19T18:23:41;22.10;;;8.73;;
3979;SDS011;2004;52.452;13.120;2023-03-19T18:31:32;9.93;;;7.37;;
3979;SDS011;2004;52.452;13.120;2023-03-19T18:39:23;11.40;;;6.50;;
3979;SDS011;2004;52.452;13.120;2023-03-19T18:47:14;10.07;;;6.53;;
3979;SDS011;2004;52.452;13.120;2023-03-19T18:55:05;10.73;;;5.50;;
3979;SDS011;2004;52.452;13.120;2023-03-19T19:02:56;5.90;;;4.47;;
3979;SDS011;2004;52.452;13.120;2023-03-19T19:10:49;10.60;;;5.20;;
3979;SDS011;2004;52.452;13.120;2023-03-19T19:18:46;9.17;;;4.77;;
3979;SDS011;2004;52.452;13.120;2023-03-19T19:26:36;6.97;;;5.60;;
3979;SDS011;2004;52.452;13.120;2023-03-19T19:34:27;10.13;;;5.13;;
3979;SDS011;2004;52.452;13.120;2023-03-19T19:42:19;5.83;;;4.50;;
3979;SDS011;2004;52.452;13.120;2023-03-19T19:50:15;4.63;;;3.53;;
3979;SDS011;2004;52.452;13.120;2023-03-19T19:58:09;3.13;;;2.93;;
3979;SDS011;2004;52.452;13.120;2023-03-19T20:06:07;5.80;;;3.60;;
3979;SDS011;2004;52.452;13.120;2023-03-19T20:13:57;4.70;;;3.53;;
3979;SDS011;2004;52.452;13.120;2023-03-19T20:21:48;7.50;;;4.60;;
3979;SDS011;2004;52.452;13.120;2023-03-19T20:29:38;8.50;;;3.33;;
3979;SDS011;2004;52.452;13.120;2023-03-19T20:37:29;4.60;;;3.10;;
3979;SDS011;2004;52.452;13.120;2023-03-19T20:45:20;4.63;;;4.20;;
3979;SDS011;2004;52.452;13.120;2023-03-19T20:53:13;5.90;;;3.33;;
3979;SDS011;2004;52.452;13.120;2023-03-19T21:01:06;9.23;;;6.70;;
3979;SDS011;2004;52.452;13.120;2023-03-19T21:08:56;6.93;;;3.40;;
3979;SDS011;2004;52.452;13.120;2023-03-19T21:16:49;4.60;;;2.60;;
3979;SDS011;2004;52.452;13.120;2023-03-19T21:24:39;4.37;;;3.30;;
3979;SDS011;2004;52.452;13.120;2023-03-19T21:32:30;5.57;;;3.70;;
3979;SDS011;2004;52.452;13.120;2023-03-19T21:40:21;5.93;;;3.20;;
3979;SDS011;2004;52.452;13.120;2023-03-19T21:48:25;6.47;;;3.10;;
3979;SDS011;2004;52.452;13.120;2023-03-19T21:56:20;4.10;;;3.43;;
3979;SDS011;2004;52.452;13.120;2023-03-19T22:04:12;4.80;;;3.07;;
3979;SDS011;2004;52.452;13.120;2023-03-19T22:12:03;4.70;;;3.17;;
3979;SDS011;2004;52.452;13.120;2023-03-19T22:19:54;3.63;;;2.40;;
3979;SDS011;2004;52.452;13.120;2023-03-19T22:27:48;5.77;;;3.23;;
3979;SDS011;2004;52.452;13.120;2023-03-19T22:35:41;2.60;;;2.40;;
3979;SDS011;2004;52.452;13.120;2023-03-19T22:43:32;3.87;;;2.53;;
3979;SDS011;2004;52.452;13.120;2023-03-19T22:51:25;3.63;;;2.80;;
3979;SDS011;2004;52.452;13.120;2023-03-19T22:59:17;2.57;;;2.40;;
3979;SDS011;2004;52.452;13.120;2023-03-19T23:07:09;4.50;;;3.37;;
3979;SDS011;2004;52.452;13.120;2023-03-19T23:15:01;7.37;;;3.60;;
3979;SDS011;2004;52.452;13.120;2023-03-19T23:22:52;7.20;;;3.90;;
3979;SDS011;2004;52.452;13.120;2023-03-19T23:30:43;4.97;;;3.63;;
3979;SDS011;2004;52.452;13.120;2023-03-19T23:38:35;3.57;;;2.90;;
3979;SDS011;2004;52.452;13.120;2023-03-19T23:46:27;3.53;;;2.67;;
3979;SDS011;2004;52.452;13.120;2023-03-19T23:54:34;2.60;;;2.40;;
